createdAt,value
2023-03-02T06:02:59.769Z,31.65
2023-03-02T06:05:32.943Z,33.03
2023-03-02T06:08:09.679Z,32.53
2023-03-02T06:10:46.693Z,32.38
2023-03-02T06:13:17.428Z,33.70
2023-03-02T06:15:54.676Z,32.58
2023-03-02T06:18:27.653Z,31.85
2023-03-02T06:21:04.650Z,32.17
2023-03-02T06:23:42.749Z,31.85
2023-03-02T06:26:15.749Z,33.47
2023-03-02T06:28:54.017Z,32.75
2023-03-02T06:31:31.707Z,32.88
2023-03-02T06:34:04.854Z,31.58
2023-03-02T06:36:45.683Z,32.70
2023-03-02T06:39:24.857Z,34.80
2023-03-02T06:41:55.169Z,32.55
2023-03-02T06:44:31.633Z,34.05
2023-03-02T06:47:02.219Z,32.65
2023-03-02T06:49:41.674Z,34.13
2023-03-02T06:52:13.715Z,33.00
2023-03-02T06:54:50.746Z,34.15
2023-03-02T06:57:27.716Z,34.55
2023-03-02T06:59:58.077Z,33.72
2023-03-02T07:02:34.716Z,29.88
2023-03-02T07:05:15.630Z,33.05
2023-03-02T07:07:46.087Z,33.47
2023-03-02T07:10:22.757Z,31.25
2023-03-02T07:12:52.870Z,33.22
2023-03-02T07:15:29.719Z,33.38
2023-03-02T07:17:59.820Z,31.40
2023-03-02T07:20:39.669Z,32.47
2023-03-02T07:23:10.357Z,33.03
2023-03-02T07:25:46.718Z,32.30
2023-03-02T07:28:17.038Z,31.30
2023-03-02T07:30:53.712Z,29.30
2023-03-02T07:33:24.451Z,30.77
2023-03-02T07:36:03.722Z,29.58
2023-03-02T07:38:40.913Z,30.65
2023-03-02T07:41:12.439Z,28.00
2023-03-02T07:43:48.822Z,27.10
2023-03-02T07:46:25.882Z,26.85
2023-03-02T07:48:56.142Z,27.75
2023-03-02T07:51:35.767Z,27.63
2023-03-02T07:54:05.933Z,27.95
2023-03-02T07:56:42.745Z,26.48
2023-03-02T07:59:13.827Z,25.75
2023-03-02T08:01:50.822Z,25.77
2023-03-02T08:04:21.043Z,25.13
2023-03-02T08:07:00.735Z,24.40
2023-03-02T08:09:30.754Z,23.08
2023-03-02T08:12:07.797Z,23.90
2023-03-02T08:14:45.275Z,23.30
2023-03-02T08:17:15.348Z,22.95
2023-03-02T08:19:51.762Z,22.63
2023-03-02T08:22:24.793Z,22.25
2023-03-02T08:25:01.825Z,22.80
2023-03-02T08:27:38.887Z,21.90
2023-03-02T08:30:13.319Z,22.17
2023-03-02T08:32:49.794Z,21.05
2023-03-02T08:35:28.908Z,19.98
2023-03-02T08:38:04.322Z,20.92
2023-03-02T08:40:41.765Z,20.27
2023-03-02T08:43:11.868Z,20.30
2023-03-02T08:45:48.968Z,20.48
2023-03-02T08:48:19.096Z,20.58
2023-03-02T08:51:04.833Z,18.35
2023-03-02T08:53:41.005Z,20.20
2023-03-02T08:56:26.855Z,20.20
2023-03-02T08:59:00.766Z,19.80
2023-03-02T09:01:39.886Z,18.67
2023-03-02T09:04:12.277Z,18.83
2023-03-02T09:06:51.874Z,18.35
2023-03-02T09:09:24.985Z,18.20
2023-03-02T09:12:01.900Z,18.35
2023-03-02T09:14:32.044Z,19.38
2023-03-02T09:17:08.892Z,18.00
2023-03-02T09:19:48.807Z,18.05
2023-03-02T09:22:18.861Z,18.15
2023-03-02T09:24:57.913Z,18.77
2023-03-02T09:27:34.938Z,17.73
2023-03-02T09:30:05.051Z,18.55
2023-03-02T09:32:42.120Z,17.77
2023-03-02T09:35:13.116Z,18.85
2023-03-02T09:37:50.002Z,17.33
2023-03-02T09:40:34.887Z,18.13
2023-03-02T09:43:31.913Z,17.50
2023-03-02T09:46:23.966Z,17.25
2023-03-02T09:49:20.529Z,18.40
2023-03-02T09:52:11.905Z,17.85
2023-03-02T09:54:43.296Z,18.47
2023-03-02T09:57:31.964Z,18.67
2023-03-02T10:00:18.710Z,18.45
2023-03-02T10:03:11.360Z,17.45
2023-03-02T10:05:54.926Z,18.65
2023-03-02T10:08:29.252Z,18.02
2023-03-02T10:11:16.953Z,18.08
2023-03-02T10:13:57.383Z,18.23
2023-03-02T10:16:43.938Z,17.48
2023-03-02T10:19:25.098Z,17.13
2023-03-02T10:22:07.982Z,17.00
2023-03-02T10:24:43.299Z,17.17
2023-03-02T10:27:26.955Z,18.20
2023-03-02T10:30:06.801Z,16.45
2023-03-02T10:32:47.925Z,17.67
2023-03-02T10:35:30.031Z,18.47
2023-03-02T10:38:11.942Z,18.38
2023-03-02T10:40:53.261Z,17.13
2023-03-02T10:43:37.071Z,17.42
2023-03-02T10:46:12.549Z,18.42
2023-03-02T10:49:00.992Z,17.88
2023-03-02T10:51:32.944Z,18.20
2023-03-02T10:56:52.138Z,18.05
2023-03-02T10:59:52.942Z,18.33
2023-03-02T11:02:29.455Z,18.50
2023-03-02T11:05:09.032Z,18.33
2023-03-02T11:07:46.031Z,17.67
2023-03-02T11:10:23.947Z,19.42
2023-03-02T11:13:03.021Z,17.92
2023-03-02T11:15:50.068Z,18.60
2023-03-02T11:18:30.057Z,18.85
2023-03-02T11:21:11.010Z,18.60
2023-03-02T11:23:52.105Z,18.60
2023-03-02T11:26:36.256Z,19.30
2023-03-02T11:29:14.820Z,19.42
2023-03-02T11:31:58.183Z,18.95
2023-03-02T11:34:37.448Z,19.90
2023-03-02T11:37:25.147Z,19.33
2023-03-02T11:40:15.950Z,20.08
2023-03-02T11:42:55.094Z,19.48
2023-03-02T11:45:29.414Z,19.20
2023-03-02T11:48:13.120Z,18.15
2023-03-02T11:51:01.212Z,18.02
2023-03-02T11:53:49.061Z,17.70
2023-03-02T11:56:26.099Z,17.00
2023-03-02T11:59:12.168Z,19.02
2023-03-02T12:01:43.564Z,18.50
2023-03-02T12:04:39.085Z,17.38
2023-03-02T12:07:25.997Z,17.85
2023-03-02T12:10:14.051Z,16.65
2023-03-02T12:12:56.123Z,17.83
2023-03-02T12:18:56.160Z,17.38
2023-03-02T12:21:28.148Z,17.38
2023-03-02T12:24:10.143Z,17.30
2023-03-02T12:29:27.351Z,17.50
2023-03-02T12:32:06.339Z,17.17
2023-03-02T12:34:40.304Z,17.55
2023-03-02T12:37:27.119Z,17.33
2023-03-02T12:40:42.114Z,16.85
2023-03-02T12:43:30.216Z,16.65
2023-03-02T12:46:35.550Z,17.52
2023-03-02T12:49:43.177Z,17.92
2023-03-02T12:52:31.532Z,17.25
2023-03-02T12:55:25.151Z,16.35
2023-03-02T12:58:01.272Z,16.05
2023-03-02T13:00:41.231Z,15.63
2023-03-02T13:03:18.874Z,15.18
2023-03-02T13:05:56.184Z,15.73
2023-03-02T13:08:31.435Z,16.08
2023-03-02T13:11:12.253Z,15.30
2023-03-02T13:13:48.669Z,15.43
2023-03-02T13:16:32.458Z,14.93
2023-03-02T13:19:12.143Z,15.85
2023-03-02T13:21:43.237Z,15.13
2023-03-02T13:24:42.278Z,13.50
2023-03-02T13:27:28.239Z,14.77
2023-03-02T13:30:20.460Z,14.75
2023-03-02T13:35:35.164Z,14.45
2023-03-02T13:38:08.866Z,13.90
2023-03-02T13:40:54.315Z,14.13
2023-03-02T13:43:41.384Z,14.73
2023-03-02T13:46:44.257Z,13.48
2023-03-02T13:49:14.503Z,13.38
2023-03-02T13:51:54.288Z,13.85
2023-03-02T13:54:28.501Z,13.77
2023-03-02T13:57:07.272Z,12.85
2023-03-02T13:59:39.116Z,13.38
